Airfield :
LOGIN :

Register | Disclaimer

   EN    FR    IT 

 










Legend :    VFR   Marginal VFR   IFR   Intensive IFR   Very Intensive IFR
Visi :
Ceiling :
>= 8 km
>= 3000ft
5 to 8 km
1000 to 3000 ft
1500m to 5 km
500 to 1000 ft
800 to 1500m
200 to 500 ft
< 800m
< 200 ft
Symbols :   Thunderstorms  Fog  Heavy snow  Heavy precipitations  Wind > 20 kt
SIGMETs :     Misc.  Thunderstorms  Icing  Turbulence  Mountain Waves  Volcanic Ashes






- Airport Elevation : 24 ft
- IATA code : IBZ


LEIB - Ibiza

CURRENT METAR :
  • 082030Z 28019G35KT 9999 SCT049 14/02 Q1013 NOSIG

EXPIRED METARs :
  • 082000Z 28023G35KT 250V310 9999 FEW046 14/03 Q1013 NOSIG
  • 081930Z 27020KT 250V310 9999 FEW045 14/03 Q1013 NOSIG
  • 081900Z 27019G32KT 250V310 9999 FEW045 14/02 Q1013 NOSIG
  • 081830Z 27020G32KT 240V310 9999 FEW045 14/02 Q1012 NOSIG
  • 081800Z 28018KT 240V310 9999 FEW045 15/02 Q1012 NOSIG

TAF TAF LEIB
Valid from the 08 at 21:00 until the 09 at 21:00 UTC


082000Z 0821/0921 27020KT 9999 FEW045 TX17/0912Z TN09/0906Z
TEMPO 0821/0823 29020G32KT
TEMPO 0823/0903 30015G25KT
PROB40
TEMPO 0823/0912 31020G30KT
BECMG 0912/0914 27010KT



MET'MAP, your aeronautical weather chart ! - Copyright ORBIFLY December 2007 - Disclaimer

ORBIFLY MET'MAP TEAM :

Programming & Development : Alexandra Zaïnal
Concept & original design : Baudouin d'Aumeries
Assistance for programming : Marc-Olivier Méhu
Technical & hardware support : Manuel Goepfert

Contact : metmap@orbifly.com




SOURCES & CREDITS :

   NOAA